createdAt,value
2023-01-09T00:00:24.696Z,17.52
2023-01-09T00:00:57.190Z,17.23
2023-01-09T00:01:32.542Z,18.37
2023-01-09T00:02:04.725Z,16.92
2023-01-09T00:02:40.621Z,15.98
2023-01-09T00:03:12.512Z,18.98
2023-01-09T00:03:44.448Z,15.70
2023-01-09T00:04:16.727Z,17.25
2023-01-09T00:04:48.650Z,17.27
2023-01-09T00:05:21.209Z,16.40
2023-01-09T00:05:53.309Z,18.10
2023-01-09T00:06:25.486Z,17.37
2023-01-09T00:06:57.380Z,18.02
2023-01-09T00:07:29.184Z,15.68
2023-01-09T00:08:01.058Z,17.27
2023-01-09T00:08:32.935Z,17.23
2023-01-09T00:09:04.797Z,16.60
2023-01-09T00:09:36.596Z,17.75
2023-01-09T00:10:09.529Z,17.23
2023-01-09T00:10:41.350Z,17.45
2023-01-09T00:11:13.178Z,16.77
2023-01-09T00:11:45.702Z,16.52
2023-01-09T00:12:17.614Z,16.35
2023-01-09T00:12:49.684Z,19.12
2023-01-09T00:13:21.619Z,15.82
2023-01-09T00:13:53.711Z,17.05
2023-01-09T00:14:25.674Z,16.98
2023-01-09T00:14:57.537Z,18.42
2023-01-09T00:15:29.503Z,16.20
2023-01-09T00:16:01.343Z,15.15
2023-01-09T00:16:33.232Z,16.62
2023-01-09T00:17:05.490Z,15.02
2023-01-09T00:17:37.769Z,16.60
2023-01-09T00:18:09.741Z,18.00
2023-01-09T00:18:41.608Z,18.87
2023-01-09T00:19:13.514Z,17.05
2023-01-09T00:19:45.635Z,15.77
2023-01-09T00:20:17.835Z,16.62
2023-01-09T00:20:49.698Z,16.08
2023-01-09T00:21:21.690Z,16.42
2023-01-09T00:21:53.571Z,16.40
2023-01-09T00:22:25.740Z,15.57
2023-01-09T00:22:57.584Z,19.45
2023-01-09T00:23:29.469Z,17.70
2023-01-09T00:24:01.387Z,16.33
2023-01-09T00:24:33.219Z,17.83
2023-01-09T00:25:05.865Z,15.65
2023-01-09T00:25:38.139Z,16.55
2023-01-09T00:26:13.199Z,16.40
2023-01-09T00:26:45.059Z,17.77
2023-01-09T00:27:17.285Z,19.58
2023-01-09T00:27:49.549Z,16.50
2023-01-09T00:28:21.449Z,14.95
2023-01-09T00:28:54.189Z,16.67
2023-01-09T00:29:26.023Z,16.42
2023-01-09T00:29:58.135Z,16.90
2023-01-09T00:30:30.098Z,16.15
2023-01-09T00:31:03.720Z,17.65
2023-01-09T00:31:35.614Z,17.55
2023-01-09T00:32:10.158Z,18.10
2023-01-09T00:32:42.029Z,15.70
2023-01-09T00:33:14.245Z,21.65
2023-01-09T00:33:58.327Z,17.42
2023-01-09T00:34:30.335Z,14.48
2023-01-09T00:35:02.491Z,15.38
2023-01-09T00:35:34.386Z,14.95
2023-01-09T00:36:06.832Z,17.40
2023-01-09T00:36:38.764Z,18.45
2023-01-09T00:37:13.540Z,19.25
2023-01-09T00:37:45.422Z,15.65
2023-01-09T00:38:17.515Z,17.27
2023-01-09T00:38:50.347Z,16.52
2023-01-09T00:39:23.295Z,17.08
2023-01-09T00:39:55.121Z,14.50
2023-01-09T00:40:27.024Z,15.65
2023-01-09T00:41:00.390Z,16.08
2023-01-09T00:41:47.433Z,13.75
2023-01-09T00:42:22.540Z,14.02
2023-01-09T00:42:56.570Z,15.27
2023-01-09T00:43:32.502Z,15.70
2023-01-09T00:44:15.764Z,19.10
2023-01-09T00:44:55.082Z,16.67
2023-01-09T00:45:29.579Z,16.35
2023-01-09T00:46:05.344Z,18.80
2023-01-09T00:46:42.986Z,17.05
2023-01-09T00:47:27.958Z,14.60
2023-01-09T00:48:05.214Z,17.08
2023-01-09T00:48:41.128Z,16.25
2023-01-09T00:49:15.154Z,16.60
2023-01-09T00:49:47.960Z,16.02
2023-01-09T00:50:24.702Z,13.75
2023-01-09T00:50:59.479Z,14.10
2023-01-09T00:51:31.460Z,15.32
2023-01-09T00:52:06.731Z,16.00
2023-01-09T00:52:40.490Z,13.57
2023-01-09T00:53:19.170Z,14.73
2023-01-09T00:53:52.649Z,14.10
2023-01-09T00:54:24.691Z,18.37
2023-01-09T00:54:58.882Z,21.73
2023-01-09T00:55:31.090Z,23.87
2023-01-09T00:56:08.671Z,18.67
2023-01-09T00:56:40.530Z,14.65
2023-01-09T00:57:13.827Z,17.12
2023-01-09T00:57:45.857Z,14.82
2023-01-09T00:58:18.493Z,14.70
2023-01-09T00:58:52.020Z,15.88
2023-01-09T00:59:24.510Z,19.15
2023-01-09T00:59:58.049Z,16.62
2023-01-09T01:00:30.178Z,17.98
2023-01-09T01:01:02.377Z,16.27
2023-01-09T01:01:34.365Z,14.95
2023-01-09T01:02:06.542Z,16.12
2023-01-09T01:02:38.628Z,14.80
2023-01-09T01:03:11.054Z,16.37
2023-01-09T01:03:42.888Z,15.77
2023-01-09T01:04:33.233Z,14.30
2023-01-09T01:05:24.643Z,16.67
2023-01-09T01:06:15.510Z,15.73
2023-01-09T01:07:05.758Z,14.10
2023-01-09T01:07:41.083Z,12.23
2023-01-09T01:08:15.340Z,13.00
2023-01-09T01:08:47.177Z,13.85
2023-01-09T01:09:19.020Z,13.10
2023-01-09T01:09:50.860Z,17.35
2023-01-09T01:10:25.440Z,14.13
2023-01-09T01:10:57.300Z,15.70
2023-01-09T01:11:29.383Z,15.43
2023-01-09T01:12:01.991Z,13.90
2023-01-09T01:12:33.846Z,14.68
2023-01-09T01:13:05.678Z,14.35
2023-01-09T01:13:38.299Z,13.40
2023-01-09T01:14:10.139Z,12.20
2023-01-09T01:14:42.079Z,17.90
2023-01-09T01:15:14.480Z,13.45
2023-01-09T01:15:47.082Z,13.62
2023-01-09T01:16:19.053Z,14.50
2023-01-09T01:16:50.978Z,18.35
2023-01-09T01:17:22.979Z,16.05
2023-01-09T01:17:55.480Z,16.98
2023-01-09T01:18:27.312Z,13.07
2023-01-09T01:18:59.196Z,15.02
2023-01-09T01:19:31.316Z,16.27
2023-01-09T01:20:08.486Z,15.40
2023-01-09T01:20:45.064Z,14.10
2023-01-09T01:21:17.268Z,14.18
2023-01-09T01:21:49.219Z,13.27
2023-01-09T01:22:22.169Z,13.45
2023-01-09T01:22:53.995Z,14.45
2023-01-09T01:23:26.245Z,12.98
2023-01-09T01:23:58.092Z,15.95
2023-01-09T01:24:30.402Z,13.85
2023-01-09T01:25:02.867Z,14.30
2023-01-09T01:25:38.350Z,14.20
2023-01-09T01:26:16.525Z,14.55
2023-01-09T01:26:48.706Z,20.75
2023-01-09T01:27:20.637Z,14.10
2023-01-09T01:27:52.501Z,15.98
2023-01-09T01:28:24.349Z,13.25
2023-01-09T01:28:56.229Z,14.63
2023-01-09T01:29:28.419Z,14.65
2023-01-09T01:30:00.351Z,13.20
2023-01-09T01:30:33.249Z,14.13
2023-01-09T01:31:05.839Z,15.15
2023-01-09T01:31:37.732Z,13.05
2023-01-09T01:32:09.930Z,16.62
2023-01-09T01:32:41.996Z,17.98
2023-01-09T01:33:13.824Z,12.95
2023-01-09T01:33:45.939Z,13.82
2023-01-09T01:34:17.779Z,15.18
2023-01-09T01:34:49.632Z,13.27
2023-01-09T01:35:22.562Z,14.82
2023-01-09T01:36:06.027Z,13.88
2023-01-09T01:36:37.858Z,13.55
2023-01-09T01:37:10.037Z,15.90
2023-01-09T01:37:41.999Z,13.13
2023-01-09T01:38:13.818Z,12.48
2023-01-09T01:38:46.978Z,11.98
2023-01-09T01:39:19.049Z,13.23
2023-01-09T01:39:52.004Z,13.98
2023-01-09T01:40:23.823Z,17.80
2023-01-09T01:40:56.817Z,18.30
2023-01-09T01:41:31.329Z,15.55
2023-01-09T01:42:04.714Z,14.90
2023-01-09T01:42:36.887Z,13.35
2023-01-09T01:43:12.151Z,11.25
2023-01-09T01:44:05.470Z,14.18
2023-01-09T01:44:56.048Z,13.82
2023-01-09T01:45:29.968Z,14.73
2023-01-09T01:46:01.914Z,14.48
2023-01-09T01:46:34.707Z,13.52
2023-01-09T01:47:06.618Z,13.68
2023-01-09T01:47:47.596Z,19.20
2023-01-09T01:48:30.672Z,12.63
2023-01-09T01:49:15.735Z,15.27
2023-01-09T01:49:47.897Z,14.18
2023-01-09T01:50:35.345Z,16.80
2023-01-09T01:51:09.988Z,14.45
2023-01-09T01:51:47.362Z,11.95
2023-01-09T01:52:20.370Z,16.23
2023-01-09T01:53:05.487Z,15.13
2023-01-09T01:53:46.238Z,18.58
2023-01-09T01:54:53.349Z,11.93
2023-01-09T01:55:25.496Z,15.60
2023-01-09T01:56:13.965Z,17.60
2023-01-09T01:56:50.259Z,14.35
2023-01-09T01:57:22.164Z,15.88
2023-01-09T01:57:59.714Z,15.23
2023-01-09T01:58:33.017Z,13.13
2023-01-09T01:59:11.558Z,17.35
2023-01-09T01:59:50.367Z,14.18
2023-01-09T02:00:27.859Z,14.75
2023-01-09T02:01:00.137Z,12.60
2023-01-09T02:01:33.905Z,13.27
2023-01-09T02:02:06.633Z,12.63
2023-01-09T02:02:38.686Z,16.87
2023-01-09T02:03:15.003Z,12.05
2023-01-09T02:03:47.424Z,13.82
2023-01-09T02:04:19.618Z,12.93
2023-01-09T02:04:55.503Z,13.10
2023-01-09T02:05:27.683Z,11.98
2023-01-09T02:05:59.774Z,14.02
2023-01-09T02:06:35.121Z,13.10
2023-01-09T02:07:09.854Z,15.48
2023-01-09T02:07:41.741Z,16.33
2023-01-09T02:08:14.120Z,13.82
2023-01-09T02:08:47.184Z,13.13
2023-01-09T02:09:22.788Z,14.30
2023-01-09T02:09:55.466Z,11.68
2023-01-09T02:10:27.956Z,12.18
2023-01-09T02:11:00.296Z,14.23
2023-01-09T02:11:32.879Z,14.93
2023-01-09T02:12:26.496Z,14.82
2023-01-09T02:12:59.475Z,12.77
2023-01-09T02:13:34.316Z,12.20
2023-01-09T02:14:06.218Z,12.35
2023-01-09T02:14:38.075Z,12.43
2023-01-09T02:15:13.724Z,16.30
2023-01-09T02:15:48.291Z,11.88
2023-01-09T02:16:38.068Z,18.27
2023-01-09T02:17:27.718Z,15.15
2023-01-09T02:18:17.671Z,12.68
2023-01-09T02:18:55.853Z,16.15
2023-01-09T02:19:54.219Z,13.98
2023-01-09T02:20:34.920Z,16.12
2023-01-09T02:21:41.229Z,14.57
2023-01-09T02:22:19.068Z,16.00
2023-01-09T02:23:15.662Z,11.93
2023-01-09T02:24:08.928Z,15.00
2023-01-09T02:24:56.252Z,15.10
2023-01-09T02:26:02.043Z,15.02
2023-01-09T02:27:02.372Z,15.48
2023-01-09T02:27:47.991Z,16.30
2023-01-09T02:28:35.013Z,15.88
2023-01-09T02:29:39.094Z,13.80
2023-01-09T02:30:16.795Z,16.62
2023-01-09T02:31:06.816Z,13.20
2023-01-09T02:32:00.712Z,14.75
2023-01-09T02:32:42.018Z,15.65
2023-01-09T02:33:26.684Z,13.70
2023-01-09T02:34:19.877Z,14.87
2023-01-09T02:35:06.831Z,16.90
2023-01-09T02:36:08.365Z,15.38
2023-01-09T02:36:55.341Z,15.07
2023-01-09T02:37:50.096Z,14.80
2023-01-09T02:38:54.978Z,14.10
2023-01-09T02:39:26.793Z,15.23
2023-01-09T02:40:16.703Z,14.35
2023-01-09T02:41:20.532Z,12.80
2023-01-09T02:42:07.811Z,15.57
2023-01-09T02:42:42.036Z,13.95
2023-01-09T02:43:14.745Z,16.90
2023-01-09T02:43:46.581Z,14.30
2023-01-09T02:44:22.551Z,11.45
2023-01-09T02:44:54.461Z,14.13
2023-01-09T02:45:26.522Z,14.52
2023-01-09T02:45:58.790Z,14.50
2023-01-09T02:46:30.619Z,14.80
2023-01-09T02:47:08.773Z,13.90
2023-01-09T02:47:45.681Z,14.40
2023-01-09T02:48:17.554Z,12.93
2023-01-09T02:48:54.169Z,15.02
2023-01-09T02:49:26.152Z,15.13
2023-01-09T02:50:02.461Z,14.40
2023-01-09T02:50:52.523Z,14.05
2023-01-09T02:51:40.633Z,14.40
2023-01-09T02:52:21.224Z,17.20
2023-01-09T02:53:14.983Z,14.27
2023-01-09T02:54:05.742Z,13.73
2023-01-09T02:54:56.846Z,14.63
2023-01-09T02:55:51.575Z,13.57
2023-01-09T02:56:52.125Z,15.30
2023-01-09T02:57:46.122Z,15.80
2023-01-09T02:58:50.428Z,16.40
2023-01-09T02:59:42.256Z,16.87
2023-01-09T03:00:29.015Z,13.45
2023-01-09T03:01:17.822Z,13.77
2023-01-09T03:01:56.186Z,12.23
2023-01-09T03:02:47.367Z,14.10
2023-01-09T03:04:01.011Z,14.00
2023-01-09T03:04:47.081Z,13.30
2023-01-09T03:05:38.390Z,15.32
2023-01-09T03:06:30.413Z,14.52
2023-01-09T03:07:12.157Z,14.68
2023-01-09T03:08:02.068Z,13.20
2023-01-09T03:08:42.126Z,16.90
2023-01-09T03:09:20.195Z,15.48
2023-01-09T03:10:02.977Z,16.40
2023-01-09T03:10:40.693Z,14.45
2023-01-09T03:11:12.743Z,15.70
2023-01-09T03:11:52.573Z,16.92
2023-01-09T03:12:29.662Z,17.40
2023-01-09T03:13:03.183Z,17.70
2023-01-09T03:13:54.621Z,14.07
2023-01-09T03:14:28.038Z,15.38
2023-01-09T03:15:02.580Z,14.63
2023-01-09T03:15:37.626Z,15.27
2023-01-09T03:16:15.692Z,15.55
2023-01-09T03:16:53.024Z,19.15
2023-01-09T03:17:46.057Z,15.73
2023-01-09T03:18:22.116Z,15.40
2023-01-09T03:18:56.079Z,14.40
2023-01-09T03:19:33.952Z,14.65
2023-01-09T03:20:10.475Z,16.92
2023-01-09T03:20:43.818Z,13.88
2023-01-09T03:21:17.100Z,13.07
2023-01-09T03:21:49.885Z,13.75
2023-01-09T03:22:21.805Z,15.45
2023-01-09T03:22:56.062Z,16.23
2023-01-09T03:23:28.294Z,15.80
2023-01-09T03:24:02.177Z,17.48
2023-01-09T03:24:34.010Z,15.13
2023-01-09T03:25:06.387Z,14.25
2023-01-09T03:25:38.441Z,15.93
2023-01-09T03:26:11.368Z,15.90
2023-01-09T03:26:43.821Z,17.35
2023-01-09T03:27:15.788Z,16.27
2023-01-09T03:27:47.965Z,15.63
2023-01-09T03:28:28.465Z,14.82
2023-01-09T03:29:32.677Z,16.25
2023-01-09T03:30:05.239Z,18.40
2023-01-09T03:30:37.601Z,14.85
2023-01-09T03:31:09.635Z,15.65
2023-01-09T03:31:41.548Z,16.12
2023-01-09T03:32:13.578Z,16.92
2023-01-09T03:32:45.409Z,16.95
2023-01-09T03:33:17.254Z,15.05
2023-01-09T03:33:49.151Z,16.17
2023-01-09T03:34:21.334Z,17.10
2023-01-09T03:34:53.190Z,18.62
2023-01-09T03:35:25.953Z,16.80
2023-01-09T03:35:57.831Z,13.48
2023-01-09T03:36:29.727Z,17.67
2023-01-09T03:37:01.812Z,18.48
2023-01-09T03:37:33.657Z,16.62
2023-01-09T03:38:07.303Z,15.50
2023-01-09T03:38:39.963Z,15.88
2023-01-09T03:39:12.977Z,15.75
2023-01-09T03:39:47.588Z,17.00
2023-01-09T03:40:20.067Z,16.20
2023-01-09T03:40:51.928Z,15.93
2023-01-09T03:41:23.891Z,16.35
2023-01-09T03:41:55.706Z,16.37
2023-01-09T03:42:27.528Z,15.52
2023-01-09T03:42:59.396Z,18.08
2023-01-09T03:43:31.322Z,15.65
2023-01-09T03:44:03.195Z,16.40
2023-01-09T03:44:35.053Z,11.60
2023-01-09T03:45:07.676Z,18.00
2023-01-09T03:45:39.616Z,18.02
2023-01-09T03:46:11.732Z,13.68
2023-01-09T03:46:43.632Z,15.25
2023-01-09T03:47:15.653Z,14.80
2023-01-09T03:47:48.048Z,14.98
2023-01-09T03:48:19.999Z,18.73
2023-01-09T03:48:51.849Z,14.75
2023-01-09T03:49:24.153Z,15.73
2023-01-09T03:49:56.657Z,15.15
2023-01-09T03:50:28.831Z,15.20
2023-01-09T03:51:00.704Z,13.65
2023-01-09T03:51:32.545Z,16.50
2023-01-09T03:52:04.656Z,17.67
2023-01-09T03:52:36.506Z,15.90
2023-01-09T03:53:08.500Z,15.23
2023-01-09T03:53:41.643Z,22.25
2023-01-09T03:54:13.492Z,20.62
2023-01-09T03:54:45.357Z,39.95
2023-01-09T03:55:17.213Z,38.55
2023-01-09T03:55:51.698Z,31.17
2023-01-09T03:56:23.589Z,25.33
2023-01-09T03:56:55.434Z,37.22
2023-01-09T03:57:27.299Z,29.20
2023-01-09T03:57:59.167Z,31.67
2023-01-09T03:58:31.330Z,26.50
2023-01-09T03:59:03.262Z,30.50
2023-01-09T03:59:35.102Z,24.67
2023-01-09T04:00:08.571Z,19.45
2023-01-09T04:00:46.075Z,22.23
2023-01-09T04:01:18.557Z,23.58
2023-01-09T04:01:50.512Z,37.30
2023-01-09T04:02:22.531Z,33.95
2023-01-09T04:02:54.361Z,43.50
2023-01-09T04:03:26.431Z,31.25
2023-01-09T04:03:58.350Z,27.33
2023-01-09T04:04:30.265Z,32.05
2023-01-09T04:05:02.097Z,25.12
2023-01-09T04:05:34.646Z,25.25
2023-01-09T04:06:06.795Z,24.63
2023-01-09T04:06:38.939Z,23.45
2023-01-09T04:07:11.126Z,28.75
2023-01-09T04:07:42.998Z,28.08
2023-01-09T04:08:14.912Z,25.83
2023-01-09T04:08:46.822Z,22.52
2023-01-09T04:09:18.697Z,20.37
2023-01-09T04:09:50.616Z,20.95
2023-01-09T04:10:22.488Z,28.67
2023-01-09T04:10:54.338Z,25.02
2023-01-09T04:11:26.212Z,24.70
2023-01-09T04:11:58.351Z,29.12
2023-01-09T04:12:30.212Z,29.95
2023-01-09T04:13:02.146Z,23.45
2023-01-09T04:13:33.987Z,17.67
2023-01-09T04:14:05.845Z,30.08
2023-01-09T04:14:37.674Z,54.33
2023-01-09T04:15:09.877Z,55.25
2023-01-09T04:15:41.762Z,41.63
2023-01-09T04:16:13.795Z,35.42
2023-01-09T04:16:45.723Z,27.48
2023-01-09T04:17:18.018Z,23.23
2023-01-09T04:17:49.889Z,51.00
2023-01-09T04:18:21.808Z,44.80
2023-01-09T04:18:53.673Z,39.33
2023-01-09T04:19:25.523Z,29.63
2023-01-09T04:19:59.113Z,16.87
2023-01-09T04:20:31.472Z,93.22
2023-01-09T04:21:03.349Z,41.25
2023-01-09T04:21:35.226Z,36.78
2023-01-09T04:22:07.100Z,22.98
2023-01-09T04:22:39.262Z,21.12
2023-01-09T04:23:11.117Z,24.12
2023-01-09T04:23:42.965Z,15.90
2023-01-09T04:24:14.818Z,14.40
2023-01-09T04:24:46.640Z,16.52
2023-01-09T04:25:18.454Z,15.75
2023-01-09T04:25:50.271Z,19.17
2023-01-09T04:26:22.113Z,18.30
2023-01-09T04:26:53.998Z,17.37
2023-01-09T04:27:25.894Z,24.95
2023-01-09T04:27:58.087Z,36.58
2023-01-09T04:28:29.952Z,34.15
2023-01-09T04:29:01.979Z,40.50
2023-01-09T04:29:33.849Z,32.40
2023-01-09T04:30:06.320Z,26.37
2023-01-09T04:30:38.161Z,22.55
2023-01-09T04:31:10.278Z,24.15
2023-01-09T04:31:42.169Z,19.00
2023-01-09T04:32:14.131Z,18.60
2023-01-09T04:32:46.032Z,20.70
2023-01-09T04:33:18.173Z,27.65
2023-01-09T04:33:50.089Z,26.20
2023-01-09T04:34:25.837Z,33.47
2023-01-09T04:34:57.821Z,30.65
2023-01-09T04:35:29.661Z,28.12
2023-01-09T04:36:01.650Z,19.98
2023-01-09T04:36:36.054Z,24.20
2023-01-09T04:37:07.957Z,46.22
2023-01-09T04:37:39.810Z,29.55
2023-01-09T04:38:11.814Z,32.10
2023-01-09T04:38:43.997Z,35.25
2023-01-09T04:39:15.867Z,51.25
2023-01-09T04:39:48.170Z,38.75
2023-01-09T04:40:20.363Z,44.65
2023-01-09T04:40:52.223Z,40.53
2023-01-09T04:41:42.521Z,41.97
2023-01-09T04:42:14.404Z,32.75
2023-01-09T04:42:46.491Z,58.20
2023-01-09T04:43:18.374Z,44.28
2023-01-09T04:43:50.505Z,38.47
2023-01-09T04:44:26.883Z,29.60
2023-01-09T04:44:58.706Z,30.10
2023-01-09T04:45:30.626Z,27.50
2023-01-09T04:46:03.447Z,32.85
2023-01-09T04:46:35.459Z,37.70
2023-01-09T04:47:07.414Z,31.17
2023-01-09T04:47:39.386Z,24.92
2023-01-09T04:48:11.361Z,24.60
2023-01-09T04:48:43.342Z,22.87
2023-01-09T04:49:16.179Z,23.70
2023-01-09T04:49:48.191Z,21.37
2023-01-09T04:50:20.180Z,21.23
2023-01-09T04:50:52.161Z,18.55
2023-01-09T04:51:24.162Z,21.15
2023-01-09T04:51:57.002Z,21.60
2023-01-09T04:52:29.174Z,18.95
2023-01-09T04:53:01.139Z,24.73
2023-01-09T04:53:34.951Z,19.67
2023-01-09T04:54:07.240Z,21.02
2023-01-09T04:54:39.652Z,21.37
2023-01-09T04:55:20.670Z,21.77
2023-01-09T04:55:52.667Z,21.40
2023-01-09T04:56:24.612Z,26.87
2023-01-09T04:56:56.718Z,24.77
2023-01-09T04:57:28.672Z,21.85
2023-01-09T04:58:00.608Z,21.48
2023-01-09T04:58:32.539Z,25.33
2023-01-09T04:59:11.534Z,23.02
2023-01-09T04:59:43.885Z,22.50
2023-01-09T05:00:18.503Z,18.58
2023-01-09T05:00:51.946Z,22.02
2023-01-09T05:01:24.146Z,24.35
2023-01-09T05:01:58.396Z,27.58
2023-01-09T05:02:30.419Z,26.55
2023-01-09T05:03:03.003Z,22.08
2023-01-09T05:03:34.923Z,21.48
2023-01-09T05:04:07.644Z,22.75
2023-01-09T05:04:47.325Z,23.70
2023-01-09T05:05:19.795Z,23.05
2023-01-09T05:05:51.902Z,21.35
2023-01-09T05:06:24.152Z,19.92
2023-01-09T05:06:56.170Z,21.55
2023-01-09T05:07:28.141Z,22.27
2023-01-09T05:08:00.118Z,22.08
2023-01-09T05:08:32.256Z,18.02
2023-01-09T05:09:04.367Z,21.25
2023-01-09T05:09:36.348Z,26.55
2023-01-09T05:10:09.449Z,23.00
2023-01-09T05:10:41.746Z,25.05
2023-01-09T05:11:13.698Z,24.85
2023-01-09T05:11:45.627Z,25.40
2023-01-09T05:12:17.616Z,28.05
2023-01-09T05:12:49.549Z,22.23
2023-01-09T05:13:21.498Z,24.15
2023-01-09T05:13:54.222Z,23.90
2023-01-09T05:14:26.208Z,25.23
2023-01-09T05:14:58.133Z,23.08
2023-01-09T05:15:31.050Z,26.98
2023-01-09T05:16:03.191Z,24.42
2023-01-09T05:16:35.188Z,26.40
2023-01-09T05:17:07.051Z,22.27
2023-01-09T05:17:38.961Z,21.35
2023-01-09T05:18:10.869Z,22.45
2023-01-09T05:18:42.820Z,22.75
2023-01-09T05:19:15.075Z,23.08
2023-01-09T05:19:47.030Z,22.75
2023-01-09T05:20:19.035Z,23.85
2023-01-09T05:20:51.003Z,20.67
2023-01-09T05:21:24.595Z,22.58
2023-01-09T05:21:56.539Z,23.98
2023-01-09T05:22:28.915Z,24.20
2023-01-09T05:23:00.948Z,22.98
2023-01-09T05:23:32.902Z,24.33
2023-01-09T05:24:05.081Z,20.50
2023-01-09T05:24:37.031Z,20.67
2023-01-09T05:25:09.230Z,27.10
2023-01-09T05:25:41.177Z,23.35
2023-01-09T05:26:13.505Z,24.12
2023-01-09T05:26:45.687Z,25.10
2023-01-09T05:27:17.620Z,24.23
2023-01-09T05:27:49.543Z,25.77
2023-01-09T05:28:21.495Z,23.30
2023-01-09T05:28:56.382Z,35.88
2023-01-09T05:29:28.589Z,31.05
2023-01-09T05:30:00.548Z,24.30
2023-01-09T05:30:32.550Z,23.33
2023-01-09T05:31:04.536Z,23.38
2023-01-09T05:31:36.522Z,19.12
2023-01-09T05:32:08.791Z,22.92
2023-01-09T05:32:40.725Z,28.55
2023-01-09T05:33:12.773Z,24.63
2023-01-09T05:33:44.799Z,32.10
2023-01-09T05:34:16.672Z,24.52
2023-01-09T05:34:48.520Z,24.23
2023-01-09T05:35:20.463Z,23.45
2023-01-09T05:35:52.307Z,20.23
2023-01-09T05:36:24.160Z,22.75
2023-01-09T05:36:56.050Z,20.83
2023-01-09T05:37:28.234Z,22.52
2023-01-09T05:38:00.309Z,21.30
2023-01-09T05:38:32.181Z,21.33
2023-01-09T05:39:05.550Z,21.75
2023-01-09T05:39:37.446Z,23.50
2023-01-09T05:40:10.252Z,21.02
2023-01-09T05:40:42.084Z,22.23
2023-01-09T05:41:13.963Z,24.05
2023-01-09T05:41:45.865Z,20.17
2023-01-09T05:42:17.726Z,18.25
2023-01-09T05:42:49.963Z,20.33
2023-01-09T05:43:21.776Z,21.98
2023-01-09T05:43:53.723Z,22.65
2023-01-09T05:44:25.688Z,21.90
2023-01-09T05:44:57.615Z,20.05
2023-01-09T05:45:29.602Z,21.40
2023-01-09T05:46:01.618Z,21.30
2023-01-09T05:46:33.708Z,22.80
2023-01-09T05:47:05.684Z,22.92
2023-01-09T05:47:37.969Z,24.05
2023-01-09T05:48:10.196Z,24.35
2023-01-09T05:48:42.177Z,26.12
2023-01-09T05:49:14.175Z,23.00
2023-01-09T05:49:46.120Z,20.77
2023-01-09T05:50:18.091Z,19.92
2023-01-09T05:50:50.040Z,20.92
2023-01-09T05:51:22.288Z,19.65
2023-01-09T05:51:54.227Z,21.73
2023-01-09T05:52:26.120Z,22.25
2023-01-09T05:52:58.040Z,22.67
2023-01-09T05:53:30.190Z,21.75
2023-01-09T05:54:02.918Z,18.30
2023-01-09T05:54:34.892Z,24.48
2023-01-09T05:55:08.003Z,24.95
2023-01-09T05:55:39.936Z,20.70
2023-01-09T05:56:12.061Z,27.37
2023-01-09T05:56:44.026Z,21.77
2023-01-09T05:57:15.948Z,22.65
2023-01-09T05:57:47.894Z,26.98
2023-01-09T05:58:19.872Z,29.25
2023-01-09T05:58:52.131Z,43.63
2023-01-09T05:59:24.022Z,37.63
2023-01-09T05:59:55.965Z,23.42
2023-01-09T06:00:28.342Z,41.00
2023-01-09T06:01:00.797Z,53.53
2023-01-09T06:01:32.840Z,54.50
2023-01-09T06:02:05.053Z,52.62
2023-01-09T06:02:37.219Z,56.42
2023-01-09T06:03:09.332Z,33.20
2023-01-09T06:03:42.095Z,32.10
2023-01-09T06:04:14.099Z,40.40
2023-01-09T06:04:46.060Z,43.60
2023-01-09T06:05:17.972Z,48.80
2023-01-09T06:05:49.890Z,46.40
2023-01-09T06:06:22.810Z,51.95
2023-01-09T06:06:54.646Z,45.55
2023-01-09T06:07:26.521Z,46.65
2023-01-09T06:07:58.404Z,39.35
2023-01-09T06:08:30.318Z,58.67
2023-01-09T06:09:03.530Z,38.85
2023-01-09T06:09:35.429Z,38.30
2023-01-09T06:10:16.469Z,33.55
2023-01-09T06:10:48.362Z,31.87
2023-01-09T06:11:20.193Z,35.05
2023-01-09T06:11:54.652Z,25.02
2023-01-09T06:12:26.496Z,36.13
2023-01-09T06:12:58.376Z,30.33
2023-01-09T06:13:30.227Z,26.80
2023-01-09T06:14:02.455Z,25.85
2023-01-09T06:14:34.406Z,29.45
2023-01-09T06:15:08.886Z,27.98
2023-01-09T06:15:41.033Z,54.33
2023-01-09T06:16:14.032Z,43.17
2023-01-09T06:16:45.998Z,28.00
2023-01-09T06:17:18.188Z,27.23
2023-01-09T06:17:50.208Z,29.00
2023-01-09T06:18:22.029Z,48.72
2023-01-09T06:18:53.892Z,48.53
2023-01-09T06:19:25.718Z,25.90
2023-01-09T06:19:57.569Z,34.58
2023-01-09T06:20:29.435Z,34.15
2023-01-09T06:21:01.290Z,33.67
2023-01-09T06:21:33.832Z,44.58
2023-01-09T06:22:05.722Z,42.45
2023-01-09T06:22:38.029Z,48.47
2023-01-09T06:23:11.222Z,37.08
2023-01-09T06:23:44.046Z,23.45
2023-01-09T06:24:15.931Z,33.38
2023-01-09T06:24:47.780Z,20.05
2023-01-09T06:25:19.685Z,36.58
2023-01-09T06:25:51.586Z,47.42
2023-01-09T06:26:24.246Z,48.60
2023-01-09T06:26:56.077Z,56.13
2023-01-09T06:27:28.012Z,48.90
2023-01-09T06:28:00.174Z,35.75
2023-01-09T06:28:32.003Z,51.17
2023-01-09T06:29:03.926Z,43.67
2023-01-09T06:29:35.836Z,60.30
2023-01-09T06:30:08.352Z,54.05
2023-01-09T06:30:40.216Z,46.08
2023-01-09T06:31:12.136Z,35.53
2023-01-09T06:31:44.068Z,32.75
2023-01-09T06:32:15.962Z,33.83
2023-01-09T06:32:49.327Z,49.72
2023-01-09T06:33:21.679Z,54.17
2023-01-09T06:33:54.144Z,47.55
2023-01-09T06:34:26.026Z,61.13
2023-01-09T06:34:57.855Z,54.25
2023-01-09T06:35:29.745Z,40.75
2023-01-09T06:36:01.810Z,38.40
2023-01-09T06:36:33.643Z,34.53
2023-01-09T06:37:05.490Z,35.20
2023-01-09T06:37:37.388Z,30.10
2023-01-09T06:38:09.209Z,31.02
2023-01-09T06:38:41.391Z,36.00
2023-01-09T06:39:14.163Z,36.70
2023-01-09T06:39:46.029Z,34.47
2023-01-09T06:40:18.660Z,38.00
2023-01-09T06:40:50.848Z,35.90
2023-01-09T06:41:22.726Z,54.83
2023-01-09T06:41:54.650Z,54.78
2023-01-09T06:42:26.491Z,48.00
2023-01-09T06:42:58.366Z,49.38
2023-01-09T06:43:30.339Z,53.45
2023-01-09T06:44:02.465Z,28.67
2023-01-09T06:44:36.541Z,24.87
2023-01-09T06:45:08.975Z,26.65
2023-01-09T06:45:42.777Z,35.30
2023-01-09T06:46:14.737Z,28.52
2023-01-09T06:46:46.615Z,39.00
2023-01-09T06:47:18.442Z,31.98
2023-01-09T06:47:50.304Z,34.25
2023-01-09T06:48:22.231Z,31.95
2023-01-09T06:48:54.049Z,32.03
2023-01-09T06:49:26.180Z,23.05
2023-01-09T06:49:58.251Z,24.92
2023-01-09T06:50:30.190Z,25.50
2023-01-09T06:51:02.280Z,27.60
2023-01-09T06:51:34.148Z,33.90
2023-01-09T06:52:07.724Z,38.97
2023-01-09T06:52:40.200Z,33.53
2023-01-09T06:53:12.216Z,32.33
2023-01-09T06:53:46.633Z,25.92
2023-01-09T06:54:19.326Z,26.23
2023-01-09T06:54:51.469Z,21.35
2023-01-09T06:55:23.381Z,24.10
2023-01-09T06:55:55.266Z,21.75
2023-01-09T06:56:27.122Z,24.67
2023-01-09T06:56:58.958Z,27.50
2023-01-09T06:57:30.824Z,24.95
2023-01-09T06:58:02.641Z,23.58
2023-01-09T06:58:34.494Z,20.58
2023-01-09T06:59:06.309Z,22.42
2023-01-09T06:59:38.154Z,25.98
2023-01-09T07:00:11.083Z,31.17
2023-01-09T07:00:43.178Z,63.72
2023-01-09T07:01:15.493Z,38.70
2023-01-09T07:01:47.767Z,32.55
2023-01-09T07:02:22.324Z,42.88
2023-01-09T07:02:54.223Z,48.45
2023-01-09T07:03:26.058Z,39.60
2023-01-09T07:03:58.001Z,38.33
2023-01-09T07:04:29.910Z,40.67
2023-01-09T07:05:01.779Z,34.38
2023-01-09T07:05:40.039Z,29.17
2023-01-09T07:06:11.981Z,28.30
2023-01-09T07:06:44.017Z,24.37
2023-01-09T07:07:16.061Z,24.12
2023-01-09T07:07:47.947Z,26.45
2023-01-09T07:08:19.821Z,22.90
2023-01-09T07:08:51.673Z,27.73
2023-01-09T07:09:23.587Z,26.35
2023-01-09T07:09:55.445Z,26.58
2023-01-09T07:10:27.325Z,23.40
2023-01-09T07:10:59.532Z,21.37
2023-01-09T07:11:31.599Z,24.45
2023-01-09T07:12:03.587Z,24.33
2023-01-09T07:12:35.481Z,26.27
2023-01-09T07:13:07.370Z,27.52
2023-01-09T07:13:39.259Z,25.62
2023-01-09T07:14:11.152Z,27.85
2023-01-09T07:14:43.232Z,26.60
2023-01-09T07:15:15.365Z,25.40
2023-01-09T07:15:47.262Z,32.47
2023-01-09T07:16:19.622Z,34.97
2023-01-09T07:16:51.452Z,35.45
2023-01-09T07:17:23.269Z,27.87
2023-01-09T07:17:55.255Z,30.48
2023-01-09T07:18:27.101Z,24.08
2023-01-09T07:18:59.414Z,24.45
2023-01-09T07:19:31.409Z,21.42
2023-01-09T07:20:03.984Z,26.30
2023-01-09T07:20:35.885Z,26.27
2023-01-09T07:21:07.806Z,29.35
2023-01-09T07:21:40.019Z,23.05
2023-01-09T07:22:11.926Z,25.58
2023-01-09T07:22:44.433Z,26.45
2023-01-09T07:23:16.565Z,25.17